createdAt,value
2022-11-04T00:01:49.694Z,99212.69
2022-11-04T00:04:18.339Z,99224.09
2022-11-04T00:06:45.542Z,99240.28
2022-11-04T00:09:16.185Z,99249.00
2022-11-04T00:12:01.127Z,99249.81
2022-11-04T00:14:30.268Z,99253.31
2022-11-04T00:17:16.376Z,99256.03
2022-11-04T00:20:01.815Z,99267.66
2022-11-04T00:22:47.005Z,99260.41
2022-11-04T00:25:32.336Z,99272.22
2022-11-04T00:28:21.735Z,99274.72
2022-11-04T00:30:48.214Z,99299.22
2022-11-04T00:33:26.730Z,99329.97
2022-11-04T00:35:57.413Z,99301.28
2022-11-04T00:38:25.390Z,99317.94
2022-11-04T00:40:51.835Z,99311.94
2022-11-04T00:43:18.253Z,99308.03
2022-11-04T00:45:44.657Z,99311.13
2022-11-04T00:48:11.282Z,99303.22
2022-11-04T00:50:37.850Z,99296.41
2022-11-04T00:53:04.956Z,99286.03
2022-11-04T00:55:31.653Z,99291.88
2022-11-04T00:57:58.961Z,99298.75
2022-11-04T01:00:25.328Z,99299.19
2022-11-04T01:02:51.647Z,99312.28
2022-11-04T01:05:18.002Z,99338.88
2022-11-04T01:07:44.379Z,99353.00
2022-11-04T01:10:11.210Z,99369.81
2022-11-04T01:12:37.581Z,99376.66
2022-11-04T01:15:04.351Z,99375.44
2022-11-04T01:17:30.668Z,99379.59
2022-11-04T01:19:57.014Z,99380.03
2022-11-04T01:22:23.334Z,99376.72
2022-11-04T01:24:49.667Z,99380.66
2022-11-04T01:27:16.052Z,99380.06
2022-11-04T01:29:42.449Z,99377.56
2022-11-04T01:32:08.829Z,99385.84
2022-11-04T01:34:39.237Z,99384.22
2022-11-04T01:37:08.873Z,99390.84
2022-11-04T01:39:35.200Z,99401.88
2022-11-04T01:42:01.570Z,99420.31
2022-11-04T01:44:49.286Z,99410.56
2022-11-04T01:47:23.592Z,99410.16
2022-11-04T01:50:08.727Z,99413.28
2022-11-04T01:52:47.289Z,99415.56
2022-11-04T01:55:19.121Z,99412.25
2022-11-04T01:57:48.829Z,99416.81
2022-11-04T02:00:16.421Z,99425.09
2022-11-04T02:03:00.080Z,99428.66
2022-11-04T02:05:29.322Z,99434.03
2022-11-04T02:07:58.075Z,99429.66
2022-11-04T02:10:29.588Z,99442.13
2022-11-04T02:12:58.120Z,99443.97
2022-11-04T02:15:54.045Z,99450.22
2022-11-04T02:18:33.159Z,99445.63
2022-11-04T02:21:43.948Z,99446.47
2022-11-04T02:24:31.170Z,99453.72
2022-11-04T02:27:06.316Z,99443.75
2022-11-04T02:29:46.344Z,99460.75
2022-11-04T02:32:23.887Z,99457.25
2022-11-04T02:35:15.663Z,99459.75
2022-11-04T02:38:11.021Z,99456.19
2022-11-04T02:40:56.313Z,99441.91
2022-11-04T02:43:31.049Z,99445.22
2022-11-04T02:46:07.488Z,99454.13
2022-11-04T02:48:40.703Z,99458.69
2022-11-04T02:51:16.035Z,99473.22
2022-11-04T02:53:57.884Z,99477.56
2022-11-04T02:56:27.215Z,99472.38
2022-11-04T02:59:12.545Z,99481.50
2022-11-04T03:01:43.276Z,99480.88
2022-11-04T03:04:25.557Z,99483.16
2022-11-04T03:06:55.218Z,99487.28
2022-11-04T03:09:23.602Z,99481.69
2022-11-04T03:11:57.539Z,99482.13
2022-11-04T03:14:31.441Z,99479.22
2022-11-04T03:17:03.824Z,99480.88
2022-11-04T03:19:39.517Z,99491.66
2022-11-04T03:22:15.624Z,99488.94
2022-11-04T03:24:43.027Z,99493.66
2022-11-04T03:27:14.534Z,99502.34
2022-11-04T03:29:49.418Z,99499.00
2022-11-04T03:32:38.668Z,99515.97
2022-11-04T03:35:05.911Z,99515.13
2022-11-04T03:37:33.392Z,99515.91
2022-11-04T03:40:00.193Z,99511.16
2022-11-04T03:42:28.416Z,99513.41
2022-11-04T03:44:58.420Z,99517.31
2022-11-04T03:47:26.849Z,99529.13
2022-11-04T03:50:07.115Z,99532.84
2022-11-04T03:52:34.193Z,99539.25
2022-11-04T03:55:00.545Z,99542.13
2022-11-04T03:57:36.502Z,99540.09
2022-11-04T04:00:11.851Z,99544.06
2022-11-04T04:02:47.589Z,99540.31
2022-11-04T04:05:39.229Z,99552.75
2022-11-04T04:08:19.698Z,99559.78
2022-11-04T04:11:29.761Z,99551.53
2022-11-04T04:14:05.448Z,99557.53
2022-11-04T04:16:41.438Z,99551.94
2022-11-04T04:19:12.950Z,99555.88
2022-11-04T04:21:54.432Z,99555.69
2022-11-04T04:24:45.176Z,99561.91
2022-11-04T04:27:31.062Z,99554.88
2022-11-04T04:30:00.357Z,99562.53
2022-11-04T04:32:29.973Z,99558.63
2022-11-04T04:35:16.329Z,99555.91
2022-11-04T04:37:44.457Z,99563.19
2022-11-04T04:40:34.450Z,99569.41
2022-11-04T04:43:19.909Z,99570.44
2022-11-04T04:45:52.650Z,99576.47
2022-11-04T04:48:19.429Z,99583.91
2022-11-04T04:50:49.560Z,99576.66
2022-11-04T04:53:15.934Z,99580.16
2022-11-04T04:55:42.659Z,99578.31
2022-11-04T04:58:09.650Z,99582.66
2022-11-04T05:00:36.123Z,99595.94
2022-11-04T05:03:02.554Z,99594.91
2022-11-04T05:05:28.913Z,99595.72
2022-11-04T05:07:55.369Z,99599.06
2022-11-04T05:10:21.764Z,99596.34
2022-11-04T05:13:06.929Z,99606.31
2022-11-04T05:15:34.389Z,99604.25
2022-11-04T05:18:02.306Z,99615.03
2022-11-04T05:20:34.435Z,99616.66
2022-11-04T05:23:00.963Z,99623.72
2022-11-04T05:25:27.343Z,99629.09
2022-11-04T05:27:53.682Z,99627.25
2022-11-04T05:30:20.112Z,99637.81
2022-11-04T05:32:46.460Z,99638.44
2022-11-04T05:35:12.785Z,99646.53
2022-11-04T05:37:39.126Z,99648.16
2022-11-04T05:40:06.002Z,99652.53
2022-11-04T05:42:32.356Z,99649.84
2022-11-04T05:44:58.758Z,99658.75
2022-11-04T05:47:25.088Z,99667.66
2022-11-04T05:49:51.551Z,99668.50
2022-11-04T05:52:17.925Z,99668.31
2022-11-04T05:54:44.274Z,99677.41
2022-11-04T05:57:11.292Z,99681.94
2022-11-04T05:59:37.614Z,99682.16
2022-11-04T06:02:04.084Z,99684.88
2022-11-04T06:04:30.746Z,99685.88
2022-11-04T06:06:57.099Z,99687.97
2022-11-04T06:09:39.007Z,99695.00
2022-11-04T06:12:10.293Z,99704.72
2022-11-04T06:14:36.921Z,99700.38
2022-11-04T06:17:03.926Z,99701.22
2022-11-04T06:19:30.330Z,99700.38
2022-11-04T06:21:57.046Z,99710.13
2022-11-04T06:24:23.422Z,99719.88
2022-11-04T06:26:49.908Z,99726.28
2022-11-04T06:29:16.302Z,99718.19
2022-11-04T06:31:42.744Z,99720.88
2022-11-04T06:34:09.084Z,99719.03
2022-11-04T06:36:36.065Z,99721.94
2022-11-04T06:39:05.076Z,99723.56
2022-11-04T06:41:31.765Z,99730.19
2022-11-04T06:43:58.195Z,99727.50
2022-11-04T06:46:27.566Z,99742.84
2022-11-04T06:48:55.919Z,99735.56
2022-11-04T06:51:22.554Z,99735.97
2022-11-04T06:53:49.316Z,99743.41
2022-11-04T06:56:15.891Z,99738.25
2022-11-04T06:58:42.334Z,99750.03
2022-11-04T07:01:14.751Z,99752.94
2022-11-04T07:03:48.309Z,99751.25
2022-11-04T07:06:14.767Z,99751.66
2022-11-04T07:08:41.179Z,99756.22
2022-11-04T07:11:07.882Z,99759.94
2022-11-04T07:13:34.362Z,99763.66
2022-11-04T07:16:00.713Z,99774.41
2022-11-04T07:18:27.110Z,99775.28
2022-11-04T07:20:53.559Z,99788.72
2022-11-04T07:23:19.946Z,99794.94
2022-11-04T07:25:46.352Z,99797.41
2022-11-04T07:28:13.027Z,99808.84
2022-11-04T07:30:39.691Z,99800.56
2022-11-04T07:33:06.167Z,99803.88
2022-11-04T07:35:32.811Z,99802.47
2022-11-04T07:37:59.201Z,99800.44
2022-11-04T07:40:25.603Z,99801.91
2022-11-04T07:42:52.554Z,99802.31
2022-11-04T07:45:18.884Z,99811.88
2022-11-04T07:47:45.197Z,99809.81
2022-11-04T07:50:11.912Z,99814.00
2022-11-04T07:52:38.711Z,99824.38
2022-11-04T07:55:05.803Z,99829.38
2022-11-04T07:57:32.208Z,99834.59
2022-11-04T07:59:58.617Z,99838.09
2022-11-04T08:02:28.780Z,99841.44
2022-11-04T08:04:58.878Z,99844.75
2022-11-04T08:07:25.308Z,99845.38
2022-11-04T08:09:51.678Z,99844.38
2022-11-04T08:12:20.558Z,99845.00
2022-11-04T08:14:46.909Z,99835.91
2022-11-04T08:17:13.247Z,99833.84
2022-11-04T08:19:39.873Z,99833.84
2022-11-04T08:22:06.248Z,99839.84
2022-11-04T08:24:32.624Z,99845.22
2022-11-04T08:26:58.965Z,99843.19
2022-11-04T08:29:25.586Z,99844.66
2022-11-04T08:31:52.008Z,99853.16
2022-11-04T08:34:18.469Z,99842.00
2022-11-04T08:36:45.489Z,99845.13
2022-11-04T08:39:13.102Z,99842.03
2022-11-04T08:41:42.971Z,99852.22
2022-11-04T08:44:10.585Z,99849.53
2022-11-04T08:46:39.485Z,99849.75
2022-11-04T08:49:09.945Z,99847.50
2022-11-04T08:51:41.024Z,99853.94
2022-11-04T08:54:07.492Z,99856.88
2022-11-04T08:56:36.729Z,99863.97
2022-11-04T08:59:05.017Z,99858.81
2022-11-04T09:01:36.014Z,99869.63
2022-11-04T09:04:03.600Z,99872.34
2022-11-04T09:06:34.379Z,99876.72
2022-11-04T09:09:04.372Z,99878.84
2022-11-04T09:11:33.668Z,99875.13
2022-11-04T09:14:03.968Z,99879.50
2022-11-04T09:16:32.489Z,99885.97
2022-11-04T09:18:59.480Z,99884.53
2022-11-04T09:21:27.728Z,99886.44
2022-11-04T09:23:54.721Z,99890.19
2022-11-04T09:26:22.785Z,99890.41
2022-11-04T09:28:54.181Z,99890.22
2022-11-04T09:31:21.259Z,99883.34
2022-11-04T09:33:47.816Z,99877.34
2022-11-04T09:36:14.263Z,99866.75
2022-11-04T09:38:42.220Z,99872.38
2022-11-04T09:41:35.335Z,99884.81
2022-11-04T09:44:17.429Z,99882.97
2022-11-04T09:46:45.858Z,99878.00
2022-11-04T09:49:13.064Z,99872.78
2022-11-04T09:51:56.938Z,99875.47
2022-11-04T09:54:27.826Z,99869.88
2022-11-04T09:56:57.569Z,99871.31
2022-11-04T09:59:28.618Z,99881.31
2022-11-04T10:02:14.294Z,99887.75
2022-11-04T10:04:42.717Z,99886.69
2022-11-04T10:07:21.616Z,99887.34
2022-11-04T10:10:01.662Z,99889.03
2022-11-04T10:12:52.512Z,99889.22
2022-11-04T10:15:31.157Z,99893.16
2022-11-04T10:18:10.941Z,99895.66
2022-11-04T10:20:49.181Z,99907.06
2022-11-04T10:23:34.582Z,99916.00
2022-11-04T10:26:13.875Z,99909.31
2022-11-04T10:29:05.709Z,99903.72
2022-11-04T10:31:36.402Z,99905.19
2022-11-04T10:34:20.264Z,99905.19
2022-11-04T10:36:48.849Z,99898.09
2022-11-04T10:39:27.997Z,99902.47
2022-11-04T10:41:54.676Z,99904.94
2022-11-04T10:44:23.535Z,99914.31
2022-11-04T10:47:23.916Z,99915.19
2022-11-04T10:53:10.303Z,99922.88
2022-11-04T10:56:09.300Z,99917.50
2022-11-04T10:58:42.647Z,99934.13
2022-11-04T11:01:26.383Z,99929.53
2022-11-04T11:03:52.904Z,99928.50
2022-11-04T11:06:22.092Z,99919.94
2022-11-04T11:08:48.872Z,99927.78
2022-11-04T11:11:16.077Z,99929.00
2022-11-04T11:13:46.609Z,99931.47
2022-11-04T11:16:28.014Z,99940.16
2022-11-04T11:19:12.409Z,99934.44
2022-11-04T11:21:48.638Z,99930.03
2022-11-04T11:24:19.758Z,99927.69
2022-11-04T11:26:49.673Z,99925.09
2022-11-04T11:29:28.032Z,99937.91
2022-11-04T11:31:56.200Z,99940.41
2022-11-04T11:34:27.907Z,99932.81
2022-11-04T11:36:56.391Z,99929.00
2022-11-04T11:39:28.114Z,99928.50
2022-11-04T11:42:06.366Z,99928.22
2022-11-04T11:44:48.086Z,99927.94
2022-11-04T11:47:22.631Z,99929.75
2022-11-04T11:50:19.503Z,99928.88
2022-11-04T11:52:46.801Z,99930.47
2022-11-04T11:55:23.733Z,99937.34
2022-11-04T12:01:05.254Z,99945.72
2022-11-04T12:10:23.982Z,99945.03
2022-11-04T12:13:23.704Z,99941.81
2022-11-04T12:16:13.895Z,99939.44
2022-11-04T12:18:59.174Z,99945.41
2022-11-04T12:21:33.384Z,99949.28
2022-11-04T12:24:27.573Z,99945.81
2022-11-04T12:27:13.653Z,99950.63
2022-11-04T12:30:04.223Z,99959.44
2022-11-04T12:32:58.805Z,99961.28
2022-11-04T12:35:36.849Z,99967.56
2022-11-04T12:38:05.945Z,99960.84
2022-11-04T12:41:26.241Z,99951.06
2022-11-04T12:43:49.793Z,99959.38
2022-11-04T12:46:32.363Z,99961.56
2022-11-04T12:49:40.947Z,99967.34
2022-11-04T12:52:34.501Z,99962.50
2022-11-04T12:55:31.860Z,99963.28
2022-11-04T12:58:17.313Z,99964.28
2022-11-04T13:00:48.220Z,99965.28
2022-11-04T13:03:30.147Z,99957.09
2022-11-04T13:06:12.669Z,99965.19
2022-11-04T13:08:44.985Z,99958.28
2022-11-04T13:11:35.853Z,99960.53
2022-11-04T13:14:29.155Z,99958.00
2022-11-04T13:17:00.242Z,99966.09
2022-11-04T13:19:42.718Z,99969.38
2022-11-04T13:22:19.321Z,99966.81
2022-11-04T13:24:57.045Z,99965.09
2022-11-04T13:27:33.109Z,99961.09
2022-11-04T13:30:23.349Z,99966.88
2022-11-04T13:32:59.315Z,99968.56
2022-11-04T13:35:31.732Z,99977.09
2022-11-04T13:38:05.903Z,99978.16
2022-11-04T13:40:58.572Z,99991.09
2022-11-04T13:43:39.820Z,99990.75
2022-11-04T13:46:09.160Z,100001.19
2022-11-04T13:48:38.429Z,100011.06
2022-11-04T13:51:10.609Z,100010.06
2022-11-04T13:53:44.878Z,100020.09
2022-11-04T13:56:33.206Z,100026.88
2022-11-04T13:59:25.782Z,100017.75
2022-11-04T14:02:11.278Z,100021.19
2022-11-04T14:04:45.045Z,100020.00
2022-11-04T14:07:15.823Z,100025.91
2022-11-04T14:09:42.153Z,100035.13
2022-11-04T14:12:11.563Z,100039.72
2022-11-04T14:14:42.648Z,100041.66
2022-11-04T14:17:35.750Z,100048.78
2022-11-04T14:20:06.025Z,100056.09
2022-11-04T14:22:47.887Z,100055.28
2022-11-04T14:25:36.391Z,100059.25
2022-11-04T14:28:15.054Z,100059.50
2022-11-04T14:30:44.508Z,100064.28
2022-11-04T14:33:23.847Z,100065.97
2022-11-04T14:35:56.206Z,100074.13
2022-11-04T14:38:29.062Z,100081.19
2022-11-04T14:41:30.995Z,100082.66
2022-11-04T14:44:13.660Z,100077.88
2022-11-04T14:46:46.206Z,100089.31
2022-11-04T14:49:40.932Z,100088.09
2022-11-04T14:52:21.911Z,100091.22
2022-11-04T14:54:53.012Z,100094.53
2022-11-04T14:57:21.656Z,100101.41
2022-11-04T14:59:48.557Z,100109.94
2022-11-04T15:02:19.740Z,100106.59
2022-11-04T15:04:57.666Z,100113.25
2022-11-04T15:07:36.952Z,100117.44
2022-11-04T15:10:20.454Z,100122.63
2022-11-04T15:12:54.547Z,100131.34
2022-11-04T15:15:36.302Z,100139.47
2022-11-04T15:18:07.457Z,100146.53
2022-11-04T15:20:38.238Z,100141.88
2022-11-04T15:23:09.644Z,100136.47
2022-11-04T15:25:36.302Z,100135.63
2022-11-04T15:28:02.780Z,100144.75
2022-11-04T15:30:33.236Z,100152.00
2022-11-04T15:33:02.531Z,100153.84
2022-11-04T15:35:31.638Z,100157.56
2022-11-04T15:37:59.968Z,100170.19
2022-11-04T15:40:28.893Z,100186.56
2022-11-04T15:42:56.972Z,100190.28
2022-11-04T15:45:27.789Z,100182.13
2022-11-04T15:48:25.660Z,100183.09
2022-11-04T15:51:10.820Z,100192.22
2022-11-04T15:53:57.532Z,100188.63
2022-11-04T15:56:52.574Z,100176.13
2022-11-04T15:59:23.433Z,100187.91
2022-11-04T16:01:52.286Z,100192.38
2022-11-04T16:04:22.261Z,100194.19
2022-11-04T16:07:04.703Z,100203.03
2022-11-04T16:09:31.852Z,100194.25
2022-11-04T16:12:13.325Z,100202.28
2022-11-04T16:14:47.669Z,100191.44
2022-11-04T16:17:14.065Z,100200.69
2022-11-04T16:19:40.463Z,100204.97
2022-11-04T16:22:09.642Z,100211.16
2022-11-04T16:24:39.868Z,100210.88
2022-11-04T16:27:10.883Z,100223.28
2022-11-04T16:29:39.263Z,100226.72
2022-11-04T16:32:39.640Z,100238.91
2022-11-04T16:35:14.434Z,100247.56
2022-11-04T16:37:40.761Z,100237.53
2022-11-04T16:40:07.982Z,100247.00
2022-11-04T16:42:34.446Z,100256.50
2022-11-04T16:45:03.336Z,100253.53
2022-11-04T16:47:30.747Z,100255.97
2022-11-04T16:50:02.016Z,100243.88
2022-11-04T16:52:28.388Z,100257.06
2022-11-04T16:54:57.870Z,100253.75
2022-11-04T16:57:25.388Z,100264.88
2022-11-04T16:59:51.769Z,100259.47
2022-11-04T17:02:27.955Z,100267.56
2022-11-04T17:04:54.906Z,100268.56
2022-11-04T17:07:30.517Z,100274.63
2022-11-04T17:10:18.531Z,100273.22
2022-11-04T17:12:45.804Z,100278.63
2022-11-04T17:15:13.673Z,100278.63
2022-11-04T17:17:40.214Z,100277.63
2022-11-04T17:20:07.455Z,100281.97
2022-11-04T17:22:36.535Z,100293.41
2022-11-04T17:25:03.791Z,100295.91
2022-11-04T17:27:30.160Z,100293.69
2022-11-04T17:29:56.553Z,100301.41
2022-11-04T17:32:22.988Z,100302.06
2022-11-04T17:34:49.485Z,100300.84
2022-11-04T17:37:15.833Z,100301.66
2022-11-04T17:39:42.284Z,100302.31
2022-11-04T17:42:47.220Z,100303.16
2022-11-04T17:45:13.967Z,100300.09
2022-11-04T17:47:40.509Z,100301.94
2022-11-04T17:50:07.975Z,100317.91
2022-11-04T17:52:35.932Z,100314.38
2022-11-04T17:55:03.285Z,100323.31
2022-11-04T17:57:29.629Z,100318.94
2022-11-04T17:59:56.100Z,100327.88
2022-11-04T18:02:22.610Z,100331.59
2022-11-04T18:04:49.054Z,100330.56
2022-11-04T18:07:15.484Z,100334.09
2022-11-04T18:09:43.163Z,100334.09
2022-11-04T18:12:28.221Z,100339.47
2022-11-04T18:14:54.546Z,100339.47
2022-11-04T18:17:24.610Z,100347.75
2022-11-04T18:19:52.018Z,100341.53
2022-11-04T18:22:18.485Z,100343.41
2022-11-04T18:24:47.587Z,100354.38
2022-11-04T18:27:14.808Z,100357.22
2022-11-04T18:29:41.317Z,100356.59
2022-11-04T18:32:07.636Z,100349.53
2022-11-04T18:34:34.560Z,100352.41
2022-11-04T18:37:00.949Z,100349.06
2022-11-04T18:39:27.433Z,100357.53
2022-11-04T18:41:53.774Z,100358.72
2022-11-04T18:44:22.220Z,100365.31
2022-11-04T18:46:49.394Z,100368.56
2022-11-04T18:49:17.496Z,100366.22
2022-11-04T18:51:44.031Z,100370.09
2022-11-04T18:54:11.422Z,100374.81
2022-11-04T18:56:37.809Z,100372.50
2022-11-04T18:59:04.224Z,100370.19
2022-11-04T19:01:33.111Z,100376.94
2022-11-04T19:04:00.286Z,100370.06
2022-11-04T19:06:33.032Z,100376.63
2022-11-04T19:09:13.363Z,100381.72
2022-11-04T19:12:09.423Z,100378.75
2022-11-04T19:14:35.758Z,100381.13
2022-11-04T19:17:02.136Z,100384.41
2022-11-04T19:19:28.542Z,100385.97
2022-11-04T19:21:54.892Z,100381.28
2022-11-04T19:24:21.351Z,100381.16
2022-11-04T19:26:47.761Z,100386.41
2022-11-04T19:29:14.120Z,100390.81
2022-11-04T19:31:40.864Z,100396.09
2022-11-04T19:34:08.629Z,100388.91
2022-11-04T19:36:37.272Z,100399.53
2022-11-04T19:39:04.776Z,100402.25
2022-11-04T19:41:49.634Z,100404.81
2022-11-04T19:44:18.315Z,100407.38
2022-11-04T19:46:45.478Z,100411.94
2022-11-04T19:49:12.783Z,100418.84
2022-11-04T19:51:39.711Z,100418.88
2022-11-04T19:54:06.540Z,100416.84
2022-11-04T19:56:33.771Z,100422.91
2022-11-04T19:59:05.752Z,100426.31
2022-11-04T20:01:34.802Z,100428.66
2022-11-04T20:04:02.941Z,100434.69
2022-11-04T20:06:30.759Z,100440.75
2022-11-04T20:08:57.161Z,100443.13
2022-11-04T20:11:23.574Z,100450.00
2022-11-04T20:13:51.818Z,100439.97
2022-11-04T20:16:26.930Z,100443.97
2022-11-04T20:19:00.601Z,100448.03
2022-11-04T20:21:29.718Z,100452.19
2022-11-04T20:23:58.632Z,100461.59
2022-11-04T20:26:26.172Z,100469.31
2022-11-04T20:28:56.785Z,100467.97
2022-11-04T20:31:25.709Z,100476.34
2022-11-04T20:33:53.158Z,100488.44
2022-11-04T20:36:22.352Z,100486.09
2022-11-04T20:38:48.976Z,100491.13
2022-11-04T20:41:18.725Z,100495.97
2022-11-04T20:43:48.940Z,100492.78
2022-11-04T20:46:21.859Z,100498.47
2022-11-04T20:48:49.051Z,100499.78
2022-11-04T20:51:17.551Z,100508.19
2022-11-04T20:53:45.546Z,100513.88
2022-11-04T20:56:15.961Z,100515.88
2022-11-04T20:58:44.272Z,100522.41
2022-11-04T21:01:13.707Z,100519.03
2022-11-04T21:03:40.596Z,100518.53
2022-11-04T21:06:07.119Z,100525.06
2022-11-04T21:08:34.958Z,100526.22
2022-11-04T21:11:02.420Z,100533.91
2022-11-04T21:13:28.816Z,100536.09
2022-11-04T21:15:57.258Z,100541.09
2022-11-04T21:18:24.393Z,100542.59
2022-11-04T21:20:51.689Z,100550.25
2022-11-04T21:23:22.618Z,100547.38
2022-11-04T21:25:50.278Z,100551.50
2022-11-04T21:28:17.192Z,100547.63
2022-11-04T21:30:51.129Z,100555.09
2022-11-04T21:33:17.670Z,100560.97
2022-11-04T21:35:44.428Z,100565.78
2022-11-04T21:38:16.052Z,100560.75
2022-11-04T21:40:43.307Z,100562.91
2022-11-04T21:43:10.764Z,100562.22
2022-11-04T21:45:37.589Z,100565.22
2022-11-04T21:48:04.261Z,100569.03
2022-11-04T21:50:31.108Z,100574.72
2022-11-04T21:52:59.032Z,100580.41
2022-11-04T21:55:25.586Z,100580.03
2022-11-04T21:57:51.906Z,100589.34
2022-11-04T22:00:18.505Z,100580.09
2022-11-04T22:02:47.285Z,100594.78
2022-11-04T22:05:14.336Z,100595.09
2022-11-04T22:07:59.343Z,100600.91
2022-11-04T22:10:27.315Z,100599.53
2022-11-04T22:12:54.906Z,100610.72
2022-11-04T22:15:39.868Z,100606.81
2022-11-04T22:18:06.961Z,100595.56
2022-11-04T22:20:36.089Z,100606.72
2022-11-04T22:23:02.472Z,100606.19
2022-11-04T22:25:30.395Z,100615.38
2022-11-04T22:27:56.714Z,100612.97
2022-11-04T22:30:23.056Z,100625.00
2022-11-04T22:32:49.654Z,100625.13
2022-11-04T22:35:16.038Z,100620.09
2022-11-04T22:37:42.414Z,100627.41
2022-11-04T22:40:09.452Z,100625.88
2022-11-04T22:42:35.810Z,100625.22
2022-11-04T22:45:02.131Z,100627.31
2022-11-04T22:47:28.555Z,100628.47
2022-11-04T22:49:54.910Z,100630.47
2022-11-04T22:52:21.434Z,100633.41
2022-11-04T22:54:47.756Z,100639.91
2022-11-04T22:57:14.091Z,100643.72
2022-11-04T22:59:40.456Z,100642.19
2022-11-04T23:02:06.935Z,100639.81
2022-11-04T23:04:33.387Z,100645.31
2022-11-04T23:07:00.121Z,100637.59
2022-11-04T23:09:26.451Z,100645.06
2022-11-04T23:12:11.455Z,100645.22
2022-11-04T23:14:38.525Z,100646.50
2022-11-04T23:17:42.210Z,100651.13
2022-11-04T23:20:12.777Z,100650.44
2022-11-04T23:22:57.780Z,100656.09
2022-11-04T23:25:25.233Z,100662.56
2022-11-04T23:28:12.841Z,100657.50
2022-11-04T23:30:45.306Z,100654.13
2022-11-04T23:33:14.306Z,100664.16
2022-11-04T23:36:02.519Z,100660.78
2022-11-04T23:38:29.536Z,100657.28
2022-11-04T23:41:17.746Z,100659.94
2022-11-04T23:43:44.429Z,100652.91
2022-11-04T23:46:30.466Z,100659.78
2022-11-04T23:49:15.611Z,100657.94
2022-11-04T23:52:00.916Z,100664.00
2022-11-04T23:54:46.249Z,100665.53
2022-11-04T23:57:33.504Z,100670.75
